高雄國際航空站 - ATIS

METAR RCKH 190030Z 35003KT 300V050 5000 HZ FEW012 SCT040 BKN060 21/16 Q1020 NOSIG RMK A3014=

站台狀態:Online
最後更新:2019-01-19 08:30:01